sensor_id;sensor_type;location;lat;lon;timestamp;P1;durP1;ratioP1;P2;durP2;ratioP2
4466;SDS011;2246;42.664;23.278;2022-08-19T00:00:37;10.40;;;5.72;;
4466;SDS011;2246;42.664;23.278;2022-08-19T00:03:04;7.60;;;5.47;;
4466;SDS011;2246;42.664;23.278;2022-08-19T00:05:30;21.55;;;5.70;;
4466;SDS011;2246;42.664;23.278;2022-08-19T00:07:56;9.80;;;5.47;;
4466;SDS011;2246;42.664;23.278;2022-08-19T00:10:23;9.85;;;5.30;;
4466;SDS011;2246;42.664;23.278;2022-08-19T00:12:49;11.82;;;5.85;;
4466;SDS011;2246;42.664;23.278;2022-08-19T00:15:16;12.85;;;5.47;;
4466;SDS011;2246;42.664;23.278;2022-08-19T00:20:09;10.75;;;5.80;;
4466;SDS011;2246;42.664;23.278;2022-08-19T00:22:37;16.17;;;4.97;;
4466;SDS011;2246;42.664;23.278;2022-08-19T00:25:04;9.18;;;5.80;;
4466;SDS011;2246;42.664;23.278;2022-08-19T00:27:30;11.25;;;5.15;;
4466;SDS011;2246;42.664;23.278;2022-08-19T00:29:57;11.27;;;5.78;;
4466;SDS011;2246;42.664;23.278;2022-08-19T00:32:23;14.40;;;5.77;;
4466;SDS011;2246;42.664;23.278;2022-08-19T00:34:50;11.57;;;5.67;;
4466;SDS011;2246;42.664;23.278;2022-08-19T00:37:18;8.98;;;5.32;;
4466;SDS011;2246;42.664;23.278;2022-08-19T00:39:45;15.90;;;5.88;;
4466;SDS011;2246;42.664;23.278;2022-08-19T00:42:11;9.55;;;5.45;;
4466;SDS011;2246;42.664;23.278;2022-08-19T00:44:39;9.45;;;5.50;;
4466;SDS011;2246;42.664;23.278;2022-08-19T00:47:05;12.82;;;6.13;;
4466;SDS011;2246;42.664;23.278;2022-08-19T00:49:34;10.88;;;5.60;;
4466;SDS011;2246;42.664;23.278;2022-08-19T00:52:04;8.80;;;5.28;;
4466;SDS011;2246;42.664;23.278;2022-08-19T00:54:33;10.88;;;5.75;;
4466;SDS011;2246;42.664;23.278;2022-08-19T00:56:59;8.63;;;4.70;;
4466;SDS011;2246;42.664;23.278;2022-08-19T00:59:28;8.98;;;5.00;;
4466;SDS011;2246;42.664;23.278;2022-08-19T01:01:54;10.95;;;5.13;;
4466;SDS011;2246;42.664;23.278;2022-08-19T01:04:20;7.72;;;5.07;;
4466;SDS011;2246;42.664;23.278;2022-08-19T01:06:46;11.73;;;5.50;;
4466;SDS011;2246;42.664;23.278;2022-08-19T01:09:12;9.07;;;4.72;;
4466;SDS011;2246;42.664;23.278;2022-08-19T01:11:39;8.60;;;5.18;;
4466;SDS011;2246;42.664;23.278;2022-08-19T01:14:06;7.57;;;4.63;;
4466;SDS011;2246;42.664;23.278;2022-08-19T01:16:33;6.07;;;5.05;;
4466;SDS011;2246;42.664;23.278;2022-08-19T01:19:00;10.02;;;5.20;;
4466;SDS011;2246;42.664;23.278;2022-08-19T01:23:52;6.85;;;4.50;;
4466;SDS011;2246;42.664;23.278;2022-08-19T01:26:19;8.38;;;5.75;;
4466;SDS011;2246;42.664;23.278;2022-08-19T01:28:46;7.03;;;5.13;;
4466;SDS011;2246;42.664;23.278;2022-08-19T01:33:39;7.80;;;5.10;;
4466;SDS011;2246;42.664;23.278;2022-08-19T01:36:10;11.93;;;5.88;;
4466;SDS011;2246;42.664;23.278;2022-08-19T01:38:38;11.10;;;5.35;;
4466;SDS011;2246;42.664;23.278;2022-08-19T01:41:04;15.20;;;9.05;;
4466;SDS011;2246;42.664;23.278;2022-08-19T01:43:31;19.65;;;11.20;;
4466;SDS011;2246;42.664;23.278;2022-08-19T01:45:57;16.33;;;9.35;;
4466;SDS011;2246;42.664;23.278;2022-08-19T01:48:23;13.73;;;8.43;;
4466;SDS011;2246;42.664;23.278;2022-08-19T01:50:49;16.52;;;9.98;;
4466;SDS011;2246;42.664;23.278;2022-08-19T01:53:15;43.28;;;23.33;;
4466;SDS011;2246;42.664;23.278;2022-08-19T01:55:42;11.75;;;7.75;;
4466;SDS011;2246;42.664;23.278;2022-08-19T01:58:13;19.05;;;12.07;;
4466;SDS011;2246;42.664;23.278;2022-08-19T02:00:39;10.32;;;6.05;;
4466;SDS011;2246;42.664;23.278;2022-08-19T02:03:06;7.93;;;5.90;;
4466;SDS011;2246;42.664;23.278;2022-08-19T02:05:34;10.98;;;5.75;;
4466;SDS011;2246;42.664;23.278;2022-08-19T02:08:01;7.20;;;5.47;;
4466;SDS011;2246;42.664;23.278;2022-08-19T02:10:27;17.38;;;11.18;;
4466;SDS011;2246;42.664;23.278;2022-08-19T02:12:53;17.88;;;10.73;;
4466;SDS011;2246;42.664;23.278;2022-08-19T02:15:20;13.27;;;6.55;;
4466;SDS011;2246;42.664;23.278;2022-08-19T02:17:46;15.57;;;7.15;;
4466;SDS011;2246;42.664;23.278;2022-08-19T02:20:14;16.60;;;6.85;;
4466;SDS011;2246;42.664;23.278;2022-08-19T02:22:40;9.65;;;6.28;;
4466;SDS011;2246;42.664;23.278;2022-08-19T02:25:07;11.68;;;6.97;;
4466;SDS011;2246;42.664;23.278;2022-08-19T02:27:34;11.37;;;6.90;;
4466;SDS011;2246;42.664;23.278;2022-08-19T02:30:00;7.13;;;5.72;;
4466;SDS011;2246;42.664;23.278;2022-08-19T02:32:26;8.40;;;6.55;;
4466;SDS011;2246;42.664;23.278;2022-08-19T02:34:52;13.43;;;7.20;;
4466;SDS011;2246;42.664;23.278;2022-08-19T02:37:19;20.65;;;11.27;;
4466;SDS011;2246;42.664;23.278;2022-08-19T02:40:04;22.08;;;14.05;;
4466;SDS011;2246;42.664;23.278;2022-08-19T02:42:30;17.58;;;10.65;;
4466;SDS011;2246;42.664;23.278;2022-08-19T02:44:57;14.40;;;9.77;;
4466;SDS011;2246;42.664;23.278;2022-08-19T02:47:23;13.77;;;8.88;;
4466;SDS011;2246;42.664;23.278;2022-08-19T02:49:49;16.80;;;10.60;;
4466;SDS011;2246;42.664;23.278;2022-08-19T02:52:15;10.68;;;7.20;;
4466;SDS011;2246;42.664;23.278;2022-08-19T02:54:41;14.80;;;9.52;;
4466;SDS011;2246;42.664;23.278;2022-08-19T02:57:08;23.60;;;12.57;;
4466;SDS011;2246;42.664;23.278;2022-08-19T02:59:34;24.63;;;13.00;;
4466;SDS011;2246;42.664;23.278;2022-08-19T03:02:00;24.40;;;16.10;;
4466;SDS011;2246;42.664;23.278;2022-08-19T03:04:27;11.55;;;6.43;;
4466;SDS011;2246;42.664;23.278;2022-08-19T03:06:54;18.60;;;10.05;;
4466;SDS011;2246;42.664;23.278;2022-08-19T03:09:20;12.65;;;7.28;;
4466;SDS011;2246;42.664;23.278;2022-08-19T03:11:46;9.65;;;6.82;;
4466;SDS011;2246;42.664;23.278;2022-08-19T03:14:12;14.45;;;7.05;;
4466;SDS011;2246;42.664;23.278;2022-08-19T03:16:41;14.73;;;7.55;;
4466;SDS011;2246;42.664;23.278;2022-08-19T03:19:08;10.07;;;6.55;;
4466;SDS011;2246;42.664;23.278;2022-08-19T03:21:34;28.85;;;17.08;;
4466;SDS011;2246;42.664;23.278;2022-08-19T03:24:01;23.30;;;15.05;;
4466;SDS011;2246;42.664;23.278;2022-08-19T03:26:28;17.25;;;8.30;;
4466;SDS011;2246;42.664;23.278;2022-08-19T03:28:54;9.27;;;6.20;;
4466;SDS011;2246;42.664;23.278;2022-08-19T03:31:21;19.80;;;9.95;;
4466;SDS011;2246;42.664;23.278;2022-08-19T03:33:47;16.60;;;7.55;;
4466;SDS011;2246;42.664;23.278;2022-08-19T03:38:41;14.00;;;7.20;;
4466;SDS011;2246;42.664;23.278;2022-08-19T03:41:09;12.80;;;6.95;;
4466;SDS011;2246;42.664;23.278;2022-08-19T03:46:02;25.33;;;7.60;;
4466;SDS011;2246;42.664;23.278;2022-08-19T03:48:29;19.85;;;7.88;;
4466;SDS011;2246;42.664;23.278;2022-08-19T03:50:55;25.83;;;8.00;;
4466;SDS011;2246;42.664;23.278;2022-08-19T03:55:49;21.67;;;6.80;;
4466;SDS011;2246;42.664;23.278;2022-08-19T03:58:15;18.55;;;9.75;;
4466;SDS011;2246;42.664;23.278;2022-08-19T04:00:42;13.55;;;9.77;;
4466;SDS011;2246;42.664;23.278;2022-08-19T04:03:08;21.80;;;10.68;;
4466;SDS011;2246;42.664;23.278;2022-08-19T04:05:34;12.23;;;6.75;;
4466;SDS011;2246;42.664;23.278;2022-08-19T04:08:00;19.73;;;8.77;;
4466;SDS011;2246;42.664;23.278;2022-08-19T04:10:27;16.23;;;7.68;;
4466;SDS011;2246;42.664;23.278;2022-08-19T04:12:53;17.23;;;7.78;;
4466;SDS011;2246;42.664;23.278;2022-08-19T04:15:19;15.32;;;7.93;;
4466;SDS011;2246;42.664;23.278;2022-08-19T04:17:45;12.73;;;6.43;;
4466;SDS011;2246;42.664;23.278;2022-08-19T04:20:12;12.13;;;6.88;;
4466;SDS011;2246;42.664;23.278;2022-08-19T04:22:38;21.90;;;6.95;;
4466;SDS011;2246;42.664;23.278;2022-08-19T04:25:04;12.50;;;6.85;;
4466;SDS011;2246;42.664;23.278;2022-08-19T04:27:30;14.80;;;6.68;;
4466;SDS011;2246;42.664;23.278;2022-08-19T04:29:56;11.60;;;6.70;;
4466;SDS011;2246;42.664;23.278;2022-08-19T04:32:22;14.05;;;6.75;;
4466;SDS011;2246;42.664;23.278;2022-08-19T04:34:49;13.32;;;7.40;;
4466;SDS011;2246;42.664;23.278;2022-08-19T04:37:15;16.95;;;7.38;;
4466;SDS011;2246;42.664;23.278;2022-08-19T04:39:41;18.95;;;7.68;;
4466;SDS011;2246;42.664;23.278;2022-08-19T04:42:25;15.85;;;7.38;;
4466;SDS011;2246;42.664;23.278;2022-08-19T04:45:07;15.15;;;6.75;;
4466;SDS011;2246;42.664;23.278;2022-08-19T04:47:35;17.25;;;7.18;;
4466;SDS011;2246;42.664;23.278;2022-08-19T04:50:02;14.55;;;7.50;;
4466;SDS011;2246;42.664;23.278;2022-08-19T04:52:28;15.87;;;7.87;;
4466;SDS011;2246;42.664;23.278;2022-08-19T04:54:57;12.95;;;7.10;;
4466;SDS011;2246;42.664;23.278;2022-08-19T04:57:23;15.43;;;8.02;;
4466;SDS011;2246;42.664;23.278;2022-08-19T04:59:53;13.93;;;7.43;;
4466;SDS011;2246;42.664;23.278;2022-08-19T05:02:19;14.35;;;8.07;;
4466;SDS011;2246;42.664;23.278;2022-08-19T05:04:49;18.60;;;7.85;;
4466;SDS011;2246;42.664;23.278;2022-08-19T05:07:15;18.00;;;8.65;;
4466;SDS011;2246;42.664;23.278;2022-08-19T05:09:41;15.80;;;7.40;;
4466;SDS011;2246;42.664;23.278;2022-08-19T05:12:07;16.00;;;8.13;;
4466;SDS011;2246;42.664;23.278;2022-08-19T05:14:34;19.38;;;8.88;;
4466;SDS011;2246;42.664;23.278;2022-08-19T05:17:01;21.77;;;8.50;;
4466;SDS011;2246;42.664;23.278;2022-08-19T05:19:27;16.20;;;7.80;;
4466;SDS011;2246;42.664;23.278;2022-08-19T05:22:12;14.93;;;7.45;;
4466;SDS011;2246;42.664;23.278;2022-08-19T05:24:57;16.45;;;7.82;;
4466;SDS011;2246;42.664;23.278;2022-08-19T05:27:23;24.15;;;8.15;;
4466;SDS011;2246;42.664;23.278;2022-08-19T05:29:49;25.95;;;9.32;;
4466;SDS011;2246;42.664;23.278;2022-08-19T05:32:15;20.80;;;11.38;;
4466;SDS011;2246;42.664;23.278;2022-08-19T05:34:42;25.10;;;12.10;;
4466;SDS011;2246;42.664;23.278;2022-08-19T05:37:08;13.88;;;8.95;;
4466;SDS011;2246;42.664;23.278;2022-08-19T05:39:35;13.20;;;7.88;;
4466;SDS011;2246;42.664;23.278;2022-08-19T05:42:03;23.38;;;8.82;;
4466;SDS011;2246;42.664;23.278;2022-08-19T05:44:31;15.20;;;7.90;;
4466;SDS011;2246;42.664;23.278;2022-08-19T05:49:25;14.73;;;8.30;;
4466;SDS011;2246;42.664;23.278;2022-08-19T05:51:52;36.42;;;9.23;;
4466;SDS011;2246;42.664;23.278;2022-08-19T05:54:20;21.92;;;8.48;;
4466;SDS011;2246;42.664;23.278;2022-08-19T05:56:47;22.50;;;8.95;;
4466;SDS011;2246;42.664;23.278;2022-08-19T05:59:14;17.30;;;8.57;;
4466;SDS011;2246;42.664;23.278;2022-08-19T06:01:42;21.67;;;8.52;;
4466;SDS011;2246;42.664;23.278;2022-08-19T06:04:08;16.02;;;8.20;;
4466;SDS011;2246;42.664;23.278;2022-08-19T06:06:35;22.42;;;9.88;;
4466;SDS011;2246;42.664;23.278;2022-08-19T06:09:03;21.43;;;9.17;;
4466;SDS011;2246;42.664;23.278;2022-08-19T06:11:39;19.52;;;8.82;;
4466;SDS011;2246;42.664;23.278;2022-08-19T06:14:08;13.15;;;8.75;;
4466;SDS011;2246;42.664;23.278;2022-08-19T06:16:35;15.05;;;7.90;;
4466;SDS011;2246;42.664;23.278;2022-08-19T06:19:03;19.55;;;9.00;;
4466;SDS011;2246;42.664;23.278;2022-08-19T06:21:31;14.60;;;8.65;;
4466;SDS011;2246;42.664;23.278;2022-08-19T06:23:58;31.80;;;8.60;;
4466;SDS011;2246;42.664;23.278;2022-08-19T06:26:24;38.90;;;8.82;;
4466;SDS011;2246;42.664;23.278;2022-08-19T06:28:51;24.50;;;8.57;;
4466;SDS011;2246;42.664;23.278;2022-08-19T06:31:19;23.90;;;7.97;;
4466;SDS011;2246;42.664;23.278;2022-08-19T06:33:46;18.55;;;7.65;;
4466;SDS011;2246;42.664;23.278;2022-08-19T06:36:32;15.32;;;7.07;;
4466;SDS011;2246;42.664;23.278;2022-08-19T06:39:06;12.98;;;7.45;;
4466;SDS011;2246;42.664;23.278;2022-08-19T06:41:40;15.65;;;7.40;;
4466;SDS011;2246;42.664;23.278;2022-08-19T06:44:07;33.08;;;7.95;;
4466;SDS011;2246;42.664;23.278;2022-08-19T06:46:33;15.57;;;7.15;;
4466;SDS011;2246;42.664;23.278;2022-08-19T06:48:59;14.00;;;6.95;;
4466;SDS011;2246;42.664;23.278;2022-08-19T06:51:25;14.40;;;6.03;;
4466;SDS011;2246;42.664;23.278;2022-08-19T06:53:53;13.82;;;7.05;;
4466;SDS011;2246;42.664;23.278;2022-08-19T06:56:24;15.88;;;6.35;;
4466;SDS011;2246;42.664;23.278;2022-08-19T06:58:56;24.98;;;7.20;;
4466;SDS011;2246;42.664;23.278;2022-08-19T07:01:22;26.38;;;7.45;;
4466;SDS011;2246;42.664;23.278;2022-08-19T07:03:48;11.82;;;7.00;;
4466;SDS011;2246;42.664;23.278;2022-08-19T07:06:15;15.48;;;7.03;;
4466;SDS011;2246;42.664;23.278;2022-08-19T07:08:43;29.77;;;7.72;;
4466;SDS011;2246;42.664;23.278;2022-08-19T07:11:10;23.40;;;8.57;;
4466;SDS011;2246;42.664;23.278;2022-08-19T07:13:38;11.05;;;7.43;;
4466;SDS011;2246;42.664;23.278;2022-08-19T07:16:05;19.02;;;6.80;;
4466;SDS011;2246;42.664;23.278;2022-08-19T07:18:31;17.42;;;6.68;;
4466;SDS011;2246;42.664;23.278;2022-08-19T07:23:30;14.85;;;6.72;;
4466;SDS011;2246;42.664;23.278;2022-08-19T07:25:57;10.77;;;6.35;;
4466;SDS011;2246;42.664;23.278;2022-08-19T07:28:23;16.27;;;6.93;;
4466;SDS011;2246;42.664;23.278;2022-08-19T07:30:49;16.45;;;6.93;;
4466;SDS011;2246;42.664;23.278;2022-08-19T07:33:16;14.25;;;7.18;;
4466;SDS011;2246;42.664;23.278;2022-08-19T07:35:43;9.23;;;6.25;;
4466;SDS011;2246;42.664;23.278;2022-08-19T07:38:09;11.73;;;6.28;;
4466;SDS011;2246;42.664;23.278;2022-08-19T07:40:35;17.30;;;6.10;;
4466;SDS011;2246;42.664;23.278;2022-08-19T07:43:01;13.27;;;6.72;;
4466;SDS011;2246;42.664;23.278;2022-08-19T07:45:27;14.15;;;6.93;;
4466;SDS011;2246;42.664;23.278;2022-08-19T07:47:54;12.27;;;5.80;;
4466;SDS011;2246;42.664;23.278;2022-08-19T07:50:21;12.50;;;6.65;;
4466;SDS011;2246;42.664;23.278;2022-08-19T07:52:48;12.33;;;6.53;;
4466;SDS011;2246;42.664;23.278;2022-08-19T07:55:14;13.73;;;7.13;;
4466;SDS011;2246;42.664;23.278;2022-08-19T07:57:41;14.05;;;6.30;;
4466;SDS011;2246;42.664;23.278;2022-08-19T08:00:07;18.95;;;6.40;;
4466;SDS011;2246;42.664;23.278;2022-08-19T08:02:33;17.48;;;5.90;;
4466;SDS011;2246;42.664;23.278;2022-08-19T08:04:59;14.48;;;6.88;;
4466;SDS011;2246;42.664;23.278;2022-08-19T08:07:44;18.52;;;6.65;;
4466;SDS011;2246;42.664;23.278;2022-08-19T08:10:28;16.75;;;6.38;;
4466;SDS011;2246;42.664;23.278;2022-08-19T08:12:54;12.88;;;6.03;;
4466;SDS011;2246;42.664;23.278;2022-08-19T08:15:20;15.75;;;6.00;;
4466;SDS011;2246;42.664;23.278;2022-08-19T08:17:46;15.43;;;6.30;;
4466;SDS011;2246;42.664;23.278;2022-08-19T08:20:13;14.82;;;6.05;;
4466;SDS011;2246;42.664;23.278;2022-08-19T08:22:44;14.40;;;5.78;;
4466;SDS011;2246;42.664;23.278;2022-08-19T08:25:29;12.07;;;5.25;;
4466;SDS011;2246;42.664;23.278;2022-08-19T08:27:56;19.60;;;5.95;;
4466;SDS011;2246;42.664;23.278;2022-08-19T08:30:25;9.57;;;5.75;;
4466;SDS011;2246;42.664;23.278;2022-08-19T08:32:52;8.65;;;5.15;;
4466;SDS011;2246;42.664;23.278;2022-08-19T08:35:19;13.45;;;6.00;;
4466;SDS011;2246;42.664;23.278;2022-08-19T08:37:46;12.27;;;6.10;;
4466;SDS011;2246;42.664;23.278;2022-08-19T08:40:26;8.65;;;5.10;;
4466;SDS011;2246;42.664;23.278;2022-08-19T08:45:27;13.52;;;6.13;;
4466;SDS011;2246;42.664;23.278;2022-08-19T08:47:54;14.05;;;5.13;;
4466;SDS011;2246;42.664;23.278;2022-08-19T08:52:51;15.70;;;5.13;;
4466;SDS011;2246;42.664;23.278;2022-08-19T08:55:19;12.07;;;4.75;;
4466;SDS011;2246;42.664;23.278;2022-08-19T09:02:46;5.82;;;3.80;;
4466;SDS011;2246;42.664;23.278;2022-08-19T09:05:12;9.57;;;3.75;;
4466;SDS011;2246;42.664;23.278;2022-08-19T09:10:32;11.98;;;5.70;;
4466;SDS011;2246;42.664;23.278;2022-08-19T09:15:44;13.80;;;4.38;;
4466;SDS011;2246;42.664;23.278;2022-08-19T09:18:10;9.88;;;4.55;;
4466;SDS011;2246;42.664;23.278;2022-08-19T09:20:36;15.90;;;4.18;;
4466;SDS011;2246;42.664;23.278;2022-08-19T09:23:02;7.63;;;4.13;;
4466;SDS011;2246;42.664;23.278;2022-08-19T09:25:29;4.10;;;3.38;;
4466;SDS011;2246;42.664;23.278;2022-08-19T09:27:56;8.35;;;4.35;;
4466;SDS011;2246;42.664;23.278;2022-08-19T09:30:27;13.70;;;4.10;;
4466;SDS011;2246;42.664;23.278;2022-08-19T09:32:54;8.85;;;3.47;;
4466;SDS011;2246;42.664;23.278;2022-08-19T09:35:21;5.72;;;3.53;;
4466;SDS011;2246;42.664;23.278;2022-08-19T09:37:48;9.65;;;3.83;;
4466;SDS011;2246;42.664;23.278;2022-08-19T09:40:15;8.48;;;3.65;;
4466;SDS011;2246;42.664;23.278;2022-08-19T09:42:42;6.47;;;3.92;;
4466;SDS011;2246;42.664;23.278;2022-08-19T09:45:09;7.88;;;3.88;;
4466;SDS011;2246;42.664;23.278;2022-08-19T09:47:36;7.50;;;3.75;;
4466;SDS011;2246;42.664;23.278;2022-08-19T09:50:06;8.45;;;3.45;;
4466;SDS011;2246;42.664;23.278;2022-08-19T09:52:33;6.00;;;3.42;;
4466;SDS011;2246;42.664;23.278;2022-08-19T09:55:02;6.30;;;3.10;;
4466;SDS011;2246;42.664;23.278;2022-08-19T09:59:54;14.73;;;3.73;;
4466;SDS011;2246;42.664;23.278;2022-08-19T10:02:20;8.95;;;4.05;;
4466;SDS011;2246;42.664;23.278;2022-08-19T10:04:46;7.05;;;3.30;;
4466;SDS011;2246;42.664;23.278;2022-08-19T10:07:31;9.48;;;3.47;;
4466;SDS011;2246;42.664;23.278;2022-08-19T10:09:58;3.67;;;2.97;;
4466;SDS011;2246;42.664;23.278;2022-08-19T10:12:24;8.15;;;3.45;;
4466;SDS011;2246;42.664;23.278;2022-08-19T10:14:50;5.88;;;3.90;;
4466;SDS011;2246;42.664;23.278;2022-08-19T10:17:18;7.50;;;3.17;;
4466;SDS011;2246;42.664;23.278;2022-08-19T10:19:44;6.47;;;3.25;;
4466;SDS011;2246;42.664;23.278;2022-08-19T10:22:10;5.32;;;2.78;;
4466;SDS011;2246;42.664;23.278;2022-08-19T10:24:38;7.63;;;2.75;;
4466;SDS011;2246;42.664;23.278;2022-08-19T10:27:04;7.70;;;2.88;;
4466;SDS011;2246;42.664;23.278;2022-08-19T10:29:31;4.70;;;3.08;;
4466;SDS011;2246;42.664;23.278;2022-08-19T10:32:00;7.13;;;3.72;;
4466;SDS011;2246;42.664;23.278;2022-08-19T10:34:26;11.68;;;3.20;;
4466;SDS011;2246;42.664;23.278;2022-08-19T10:36:52;56.20;;;5.40;;
4466;SDS011;2246;42.664;23.278;2022-08-19T10:39:18;9.43;;;3.20;;
4466;SDS011;2246;42.664;23.278;2022-08-19T10:41:44;5.05;;;3.35;;
4466;SDS011;2246;42.664;23.278;2022-08-19T10:44:11;11.95;;;3.28;;
4466;SDS011;2246;42.664;23.278;2022-08-19T10:46:38;5.93;;;3.42;;
4466;SDS011;2246;42.664;23.278;2022-08-19T10:49:06;12.23;;;4.10;;
4466;SDS011;2246;42.664;23.278;2022-08-19T10:51:32;14.02;;;4.45;;
4466;SDS011;2246;42.664;23.278;2022-08-19T10:54:17;4.93;;;3.65;;
4466;SDS011;2246;42.664;23.278;2022-08-19T10:56:44;13.98;;;4.30;;
4466;SDS011;2246;42.664;23.278;2022-08-19T10:59:16;13.20;;;3.67;;
4466;SDS011;2246;42.664;23.278;2022-08-19T11:01:43;20.95;;;3.97;;
4466;SDS011;2246;42.664;23.278;2022-08-19T11:04:10;10.60;;;3.55;;
4466;SDS011;2246;42.664;23.278;2022-08-19T11:06:38;5.40;;;3.90;;
4466;SDS011;2246;42.664;23.278;2022-08-19T11:09:06;11.30;;;3.75;;
4466;SDS011;2246;42.664;23.278;2022-08-19T11:11:32;12.25;;;3.95;;
4466;SDS011;2246;42.664;23.278;2022-08-19T11:14:04;11.60;;;4.63;;
4466;SDS011;2246;42.664;23.278;2022-08-19T11:16:30;9.10;;;3.72;;
4466;SDS011;2246;42.664;23.278;2022-08-19T11:18:58;6.00;;;3.92;;
4466;SDS011;2246;42.664;23.278;2022-08-19T11:21:29;7.03;;;4.40;;
4466;SDS011;2246;42.664;23.278;2022-08-19T11:24:00;32.90;;;5.05;;
4466;SDS011;2246;42.664;23.278;2022-08-19T11:26:27;5.95;;;3.75;;
4466;SDS011;2246;42.664;23.278;2022-08-19T11:28:54;9.18;;;3.38;;
4466;SDS011;2246;42.664;23.278;2022-08-19T11:31:24;8.27;;;4.03;;
4466;SDS011;2246;42.664;23.278;2022-08-19T11:33:50;7.82;;;4.63;;
4466;SDS011;2246;42.664;23.278;2022-08-19T11:36:18;8.02;;;3.70;;
4466;SDS011;2246;42.664;23.278;2022-08-19T11:41:13;8.38;;;3.92;;
4466;SDS011;2246;42.664;23.278;2022-08-19T11:43:39;7.93;;;3.42;;
4466;SDS011;2246;42.664;23.278;2022-08-19T11:46:06;6.20;;;3.42;;
4466;SDS011;2246;42.664;23.278;2022-08-19T11:48:33;18.17;;;5.00;;
4466;SDS011;2246;42.664;23.278;2022-08-19T11:51:03;21.75;;;4.22;;
4466;SDS011;2246;42.664;23.278;2022-08-19T11:53:31;17.20;;;4.00;;
4466;SDS011;2246;42.664;23.278;2022-08-19T11:55:57;36.55;;;5.43;;
4466;SDS011;2246;42.664;23.278;2022-08-19T11:58:23;9.25;;;3.47;;
4466;SDS011;2246;42.664;23.278;2022-08-19T12:00:50;9.35;;;4.03;;
4466;SDS011;2246;42.664;23.278;2022-08-19T12:03:16;10.95;;;3.75;;
4466;SDS011;2246;42.664;23.278;2022-08-19T12:08:09;11.57;;;3.87;;
4466;SDS011;2246;42.664;23.278;2022-08-19T12:10:37;8.48;;;3.95;;
4466;SDS011;2246;42.664;23.278;2022-08-19T12:13:04;9.27;;;4.40;;
4466;SDS011;2246;42.664;23.278;2022-08-19T12:15:34;6.75;;;4.28;;
4466;SDS011;2246;42.664;23.278;2022-08-19T12:18:00;9.90;;;4.22;;
4466;SDS011;2246;42.664;23.278;2022-08-19T12:20:26;7.45;;;4.00;;
4466;SDS011;2246;42.664;23.278;2022-08-19T12:22:52;7.07;;;3.90;;
4466;SDS011;2246;42.664;23.278;2022-08-19T12:25:19;18.30;;;3.92;;
4466;SDS011;2246;42.664;23.278;2022-08-19T12:27:45;4.57;;;3.70;;
4466;SDS011;2246;42.664;23.278;2022-08-19T12:30:12;6.97;;;4.03;;
4466;SDS011;2246;42.664;23.278;2022-08-19T12:32:38;7.80;;;4.35;;
4466;SDS011;2246;42.664;23.278;2022-08-19T12:35:05;6.90;;;4.00;;
4466;SDS011;2246;42.664;23.278;2022-08-19T12:37:33;11.65;;;4.22;;
4466;SDS011;2246;42.664;23.278;2022-08-19T12:39:59;14.63;;;4.07;;
4466;SDS011;2246;42.664;23.278;2022-08-19T12:42:25;5.38;;;3.65;;
4466;SDS011;2246;42.664;23.278;2022-08-19T12:44:51;6.57;;;3.63;;
4466;SDS011;2246;42.664;23.278;2022-08-19T12:47:18;13.90;;;3.70;;
4466;SDS011;2246;42.664;23.278;2022-08-19T12:49:44;22.50;;;4.03;;
4466;SDS011;2246;42.664;23.278;2022-08-19T12:52:11;8.30;;;3.72;;
4466;SDS011;2246;42.664;23.278;2022-08-19T12:54:40;9.68;;;3.58;;
4466;SDS011;2246;42.664;23.278;2022-08-19T12:59:34;6.73;;;3.33;;
4466;SDS011;2246;42.664;23.278;2022-08-19T13:02:01;8.15;;;3.80;;
4466;SDS011;2246;42.664;23.278;2022-08-19T13:04:27;9.13;;;5.07;;
4466;SDS011;2246;42.664;23.278;2022-08-19T13:06:53;6.60;;;4.03;;
4466;SDS011;2246;42.664;23.278;2022-08-19T13:09:19;4.82;;;3.67;;
4466;SDS011;2246;42.664;23.278;2022-08-19T13:11:45;5.70;;;3.65;;
4466;SDS011;2246;42.664;23.278;2022-08-19T13:14:11;12.20;;;3.97;;
4466;SDS011;2246;42.664;23.278;2022-08-19T13:16:38;17.85;;;4.53;;
4466;SDS011;2246;42.664;23.278;2022-08-19T13:19:04;14.27;;;3.97;;
4466;SDS011;2246;42.664;23.278;2022-08-19T13:21:32;7.00;;;3.50;;
4466;SDS011;2246;42.664;23.278;2022-08-19T13:23:58;5.93;;;3.87;;
4466;SDS011;2246;42.664;23.278;2022-08-19T13:26:24;7.88;;;3.67;;
4466;SDS011;2246;42.664;23.278;2022-08-19T13:28:50;4.95;;;3.38;;
4466;SDS011;2246;42.664;23.278;2022-08-19T13:31:40;4.60;;;3.00;;
4466;SDS011;2246;42.664;23.278;2022-08-19T13:34:27;11.10;;;5.13;;
4466;SDS011;2246;42.664;23.278;2022-08-19T13:36:54;8.27;;;3.47;;
4466;SDS011;2246;42.664;23.278;2022-08-19T13:39:20;8.63;;;3.45;;
4466;SDS011;2246;42.664;23.278;2022-08-19T13:41:47;9.52;;;3.83;;
4466;SDS011;2246;42.664;23.278;2022-08-19T13:44:15;6.05;;;3.63;;
4466;SDS011;2246;42.664;23.278;2022-08-19T13:46:43;6.05;;;3.53;;
4466;SDS011;2246;42.664;23.278;2022-08-19T13:49:10;8.90;;;3.60;;
4466;SDS011;2246;42.664;23.278;2022-08-19T13:51:38;11.05;;;7.22;;
4466;SDS011;2246;42.664;23.278;2022-08-19T13:54:05;8.98;;;3.90;;
4466;SDS011;2246;42.664;23.278;2022-08-19T13:56:31;10.73;;;4.05;;
4466;SDS011;2246;42.664;23.278;2022-08-19T13:58:57;9.57;;;4.13;;
4466;SDS011;2246;42.664;23.278;2022-08-19T14:01:23;8.93;;;4.15;;
4466;SDS011;2246;42.664;23.278;2022-08-19T14:03:49;6.63;;;4.13;;
4466;SDS011;2246;42.664;23.278;2022-08-19T14:06:16;6.82;;;3.80;;
4466;SDS011;2246;42.664;23.278;2022-08-19T14:08:42;7.88;;;3.78;;
4466;SDS011;2246;42.664;23.278;2022-08-19T14:11:09;11.30;;;4.03;;
4466;SDS011;2246;42.664;23.278;2022-08-19T14:13:35;8.67;;;4.30;;
4466;SDS011;2246;42.664;23.278;2022-08-19T14:16:05;12.60;;;4.05;;
4466;SDS011;2246;42.664;23.278;2022-08-19T14:18:32;8.38;;;4.53;;
4466;SDS011;2246;42.664;23.278;2022-08-19T14:20:58;8.43;;;3.80;;
4466;SDS011;2246;42.664;23.278;2022-08-19T14:23:24;10.05;;;4.15;;
4466;SDS011;2246;42.664;23.278;2022-08-19T14:25:50;7.00;;;3.70;;
4466;SDS011;2246;42.664;23.278;2022-08-19T14:28:16;14.88;;;3.97;;
4466;SDS011;2246;42.664;23.278;2022-08-19T14:30:43;6.90;;;4.03;;
4466;SDS011;2246;42.664;23.278;2022-08-19T14:33:09;6.82;;;3.90;;
4466;SDS011;2246;42.664;23.278;2022-08-19T14:35:36;9.80;;;4.13;;
4466;SDS011;2246;42.664;23.278;2022-08-19T14:38:03;8.75;;;4.05;;
4466;SDS011;2246;42.664;23.278;2022-08-19T14:42:57;9.15;;;4.25;;
4466;SDS011;2246;42.664;23.278;2022-08-19T14:45:26;15.27;;;3.92;;
4466;SDS011;2246;42.664;23.278;2022-08-19T14:50:19;5.47;;;3.63;;
4466;SDS011;2246;42.664;23.278;2022-08-19T14:52:46;8.48;;;3.75;;
4466;SDS011;2246;42.664;23.278;2022-08-19T14:57:40;4.70;;;3.70;;
4466;SDS011;2246;42.664;23.278;2022-08-19T15:00:06;14.15;;;4.07;;
4466;SDS011;2246;42.664;23.278;2022-08-19T15:04:59;5.70;;;3.90;;
4466;SDS011;2246;42.664;23.278;2022-08-19T15:07:25;10.00;;;4.32;;
4466;SDS011;2246;42.664;23.278;2022-08-19T15:09:51;11.77;;;4.38;;
4466;SDS011;2246;42.664;23.278;2022-08-19T15:12:17;7.43;;;3.83;;
4466;SDS011;2246;42.664;23.278;2022-08-19T15:14:43;11.50;;;4.50;;
4466;SDS011;2246;42.664;23.278;2022-08-19T15:17:15;8.43;;;3.83;;
4466;SDS011;2246;42.664;23.278;2022-08-19T15:19:41;9.18;;;3.88;;
4466;SDS011;2246;42.664;23.278;2022-08-19T15:22:07;7.10;;;3.75;;
4466;SDS011;2246;42.664;23.278;2022-08-19T15:24:34;7.45;;;3.88;;
4466;SDS011;2246;42.664;23.278;2022-08-19T15:27:00;8.18;;;4.10;;
4466;SDS011;2246;42.664;23.278;2022-08-19T15:29:27;8.27;;;4.57;;
4466;SDS011;2246;42.664;23.278;2022-08-19T15:31:53;9.63;;;3.80;;
4466;SDS011;2246;42.664;23.278;2022-08-19T15:34:22;6.65;;;3.88;;
4466;SDS011;2246;42.664;23.278;2022-08-19T15:36:49;7.38;;;4.20;;
4466;SDS011;2246;42.664;23.278;2022-08-19T15:39:15;10.47;;;4.47;;
4466;SDS011;2246;42.664;23.278;2022-08-19T15:41:43;10.73;;;4.30;;
4466;SDS011;2246;42.664;23.278;2022-08-19T15:44:11;7.85;;;4.28;;
4466;SDS011;2246;42.664;23.278;2022-08-19T15:46:39;8.18;;;4.50;;
4466;SDS011;2246;42.664;23.278;2022-08-19T15:49:05;15.93;;;4.60;;